Terminal Aerodrome Forecast
Issued by NWS

Home | Current Version | Previous Version | Text Only | Print | Product List | Glossary On
Versions: 1 2 3 4 5 6 7 8 9 10 11 12 13 14 15 16
000
FTUS46 KSEW 311720
TAFOLM
TAF
KOLM 311720Z 3118/0118 20010G20KT P6SM -RA SCT015 OVC030
      TEMPO 3118/3122 3SM -RA BR OVC015
     FM010600 22008KT P6SM -RA BKN020 OVC040=

USA.gov is the U.S. government's official web portal to all federal, state and local government web resources and services.